• Join FlightAware (Why Join?)
  • Login
  • US Flag 
12:33AM EDT


 

Airport Tracker/Info


-or-


 

Live Flight TrackerFlight Track Log ✈ N836EA ✈ 03-Jul-2014 ✈ KLIT - KDWH

Flight Track Log - Related Links

Times and Time Zones

All times are in EDT time to prevent confusion due to time zone crossing. See the N836EA flight status page for this flight to view local times or setup timezone preferences in your user account.

Time Position Orientation Groundspeed Altitude Reporting Facility
EDT Latitude Longitude Course Direction KTS MPH feet Rate Location/Type
12:30PM 34.7786 -92.2742 322° Northwest 140 161 2,900  Level Memphis Center
12:30PM 34.7828 -92.2800 311° West 141 162 3,200 2,160 Climbing Memphis Center
12:30PM 34.7819 -92.3044 268° West 147 169 4,200 1,980 Climbing Memphis Center
12:31PM 34.7800 -92.3261 264° West 144 166 5,300 1,920 Climbing Memphis Center
12:32PM 34.7769 -92.3825 266° West 139 160 7,500 1,980 Climbing Memphis Center
12:33PM 34.7606 -92.4253 245° Southwest 145 167 9,500 1,800 Climbing Memphis Center
12:35PM 34.7131 -92.5125 236° Southwest 152 175 13,100 1,680 Climbing Fort Worth Center
12:36PM 34.6994 -92.5631 252° West 155 178 14,800 1,620 Climbing Fort Worth Center
12:38PM 34.6622 -92.6844 253° West 170 196 18,300 1,620 Climbing Memphis Center
12:40PM 34.6275 -92.8025 250° West 185 213 21,700 1,500 Climbing Fort Worth Center
12:41PM 34.6097 -92.8606 250° West 185 213 23,100 1,260 Climbing Fort Worth Center
12:42PM 34.5914 -92.9219 250° West 185 213 24,400 1,200 Climbing Memphis Center
12:44PM 34.5500 -93.0556 228° Southwest 191 220 27,000 840 Climbing Memphis Center
12:46PM 34.5086 -93.1908 250° West 213 245 28,000 300 Climbing Memphis Center
12:47PM 34.4836 -93.2750 250° West 248 285 28,000  Level Memphis Center
12:48PM 34.4564 -93.3628 249° West 267 307 28,000  Level Memphis Center
12:51PM 34.4011 -93.5478 250° West 283 326 28,000 -300 Level Fort Worth Center
12:52PM 34.3667 -93.6522 248° West 283 326 27,200 -1,020 Descending Memphis Center
12:53PM 34.3361 -93.7525 250° West 303 349 26,000 -420 Descending Memphis Center
12:55PM 34.2633 -93.9406 245° Southwest 302 348 26,000  Level Memphis Center
12:57PM 34.1872 -94.1131 242° Southwest 295 339 26,000  Level Memphis Center
12:58PM 34.1394 -94.2147 240° Southwest 293 337 26,000  Level Memphis Center
12:59PM 34.0922 -94.2931 234° Southwest 293 337 26,000  Level Memphis Center
01:00PM 34.0450 -94.3733 235° Southwest 293 337 26,000  Level Memphis Center
01:01PM 33.9972 -94.4553 235° Southwest 294 338 26,000  Level Memphis Center
01:02PM 33.9514 -94.5356 235° Southwest 296 341 26,000  Level Fort Worth Center
01:03PM 33.8756 -94.6136 221° Southwest 303 349 26,000  Level Fort Worth Center
01:04PM 33.8050 -94.6711 214° Southwest 304 350 26,000  Level Fort Worth Center
01:05PM 33.7383 -94.7258 214° Southwest 299 344 26,000  Level Fort Worth Center
01:07PM 33.6033 -94.8392 215° Southwest 297 342 26,000  Level Fort Worth Center
01:08PM 33.5219 -94.9050 214° Southwest 296 341 26,000  Level Fort Worth Center
01:09PM 33.4547 -94.9614 215° Southwest 296 341 26,000  Level Fort Worth Center
01:10PM 33.3856 -95.0172 214° Southwest 298 343 26,000  Level Fort Worth Center
01:11PM 33.3175 -95.0731 214° Southwest 297 342 26,000  Level Fort Worth Center
01:12PM 33.2511 -95.1294 215° Southwest 296 341 26,000  Level Fort Worth Center
01:15PM 33.0303 -95.3081 214° Southwest 297 342 26,000  Level Fort Worth Center
01:16PM 32.9811 -95.3733 228° Southwest 296 341 26,000  Level Fort Worth Center
01:17PM 32.9025 -95.4447 217° Southwest 301 346 26,000  Level Fort Worth Center
01:18PM 32.8333 -95.5000 214° Southwest 301 346 26,000  Level Fort Worth Center
01:20PM 32.7633 -95.5542 213° Southwest 301 346 26,000  Level Fort Worth Center
01:21PM 32.6458 -95.6472 214° Southwest 299 344 26,000  Level Houston Center
01:23PM 32.5547 -95.7178 213° Southwest 300 345 26,000  Level Fort Worth Center
01:24PM 32.4728 -95.7831 214° Southwest 298 343 26,000  Level Fort Worth Center
01:25PM 32.3694 -95.8622 213° Southwest 297 342 26,000  Level Houston Center
01:26PM 32.2856 -95.9278 213° Southwest 298 343 26,000  Level Houston Center
01:27PM 32.2183 -95.9803 213° Southwest 297 342 26,000  Level Houston Center
01:28PM 32.1486 -96.0333 213° Southwest 297 342 26,000  Level Houston Center
01:29PM 32.0786 -96.0878 213° Southwest 298 343 26,000  Level Houston Center
01:30PM 32.0044 -96.1447 213° Southwest 298 343 26,000  Level Houston Center
01:32PM 31.9086 -96.2189 213° Southwest 298 343 26,000  Level Fort Worth Center
01:33PM 31.8347 -96.2761 213° Southwest 298 343 26,000  Level Fort Worth Center
01:34PM 31.7644 -96.3286 212° Southwest 298 343 26,000  Level Fort Worth Center
01:36PM 31.6433 -96.4206 213° Southwest 298 343 26,000  Level Houston Center
01:37PM 31.5750 -96.4736 213° Southwest 297 342 26,000 -240 Level Houston Center
01:38PM 31.4992 -96.5025 198° South 292 336 25,600 -900 Descending Houston Center
01:39PM 31.4172 -96.4750 164° South 304 350 24,200 -780 Descending Houston Center
01:40PM 31.3383 -96.4464 163° South 297 342 24,000 -120 Descending Houston Center
01:41PM 31.2508 -96.4139 162° South 280 322 24,000 -240 Level Houston Center
01:43PM 31.1061 -96.3597 162° South 271 312 23,400 -1,080 Descending Houston Center
01:44PM 31.0331 -96.3325 162° South 271 312 20,800 -2,820 Descending Houston Center
01:45PM 30.9783 -96.3131 163° South 276 318 18,600 -2,520 Descending Houston Center
01:46PM 30.8883 -96.2800 163° South 271 312 15,600 -2,580 Descending Houston Center
01:48PM 30.7581 -96.1844 139° Southeast 258 297 9,700 -2,820 Descending Houston Center
01:49PM 30.7025 -96.1253 138° Southeast 242 278 6,800 -1,980 Descending Houston Center
01:50PM 30.6669 -96.0836 135° Southeast 212 244 5,600 -900 Descending Houston Center
01:51PM 30.6253 -96.0347 135° Southeast 171 197 5,000 -240 Descending Houston Center
01:52PM 30.5950 -95.9969 133° Southeast 160 184 5,100  Climbing Houston Center
01:53PM 30.5644 -95.9592 133° Southeast 159 183 5,000 -60 Descending Houston Center
01:54PM 30.5361 -95.9222 132° Southeast 167 192 5,000  Level Houston Center
01:55PM 30.4894 -95.8686 135° Southeast 209 241 5,000  Level Houston Center
01:56PM 30.4494 -95.8197 133° Southeast 211 243 5,000 -540 Level Houston Center
01:57PM 30.4050 -95.7669 134° Southeast 210 242 4,000 -1,020 Descending Houston Center
01:58PM 30.3664 -95.7186 133° Southeast 211 243 2,900 -960 Descending Houston Center
01:59PM 30.3275 -95.6706 133° Southeast 210 242 2,000 -240 Descending Houston Center
02:03PM 30.1733 -95.5692 221° Southwest 143 165 2,000  Level Houston Center
02:04PM 30.1689 -95.5692 180° South 156 180 2,000 -420 Level Houston Center
02:05PM 30.1350 -95.5647 174° South 139 160 1,500 -600 Descending Houston Center
02:06PM 30.1053 -95.5606 173° South 108 124 900 -600 Descending Houston Center
02:06PM 30.1058 -95.5589 69° East 122 140 900  Level Houston Center
02:08PM 30.0618 -95.5528 221° Southwest  Level Estimated
02:08PM 30.0618 -95.5528 221° Southwest  Level Estimated
02:09PM 30.0618 -95.5528 221° Southwest  Level Estimated
02:15PM 30.0618 -95.5528 221° Southwest  Level Estimated
02:16PM 30.0618 -95.5528 221° Southwest  Level Estimated
02:17PM 30.0618 -95.5528 221° Southwest  Level Estimated
02:18PM 30.0618 -95.5528 221° Southwest  Level Estimated
02:19PM 30.0618 -95.5528 221° Southwest  Level Estimated
02:20PM 30.0618 -95.5528 221° Southwest  Level Estimated
02:21PM 30.0618 -95.5528 221° Southwest  Level Estimated
02:22PM 30.0618 -95.5528 221° Southwest  Level Estimated
02:23PM 30.0618 -95.5528 221° Southwest  Level Estimated
02:24PM 30.0618 -95.5528 221° Southwest  Level Estimated
02:25PM 30.0618 -95.5528 221° Southwest  Level Estimated
02:26PM 30.0618 -95.5528 221° Southwest  Level Estimated